createdAt,value
2023-08-08T00:02:21.807Z,100.00
2023-08-08T00:04:51.367Z,100.00
2023-08-08T00:07:19.400Z,100.00
2023-08-08T00:09:47.441Z,100.00
2023-08-08T00:12:15.538Z,100.00
2023-08-08T00:14:43.559Z,100.00
2023-08-08T00:17:11.560Z,100.00
2023-08-08T00:19:39.559Z,100.00
2023-08-08T00:22:07.799Z,100.00
2023-08-08T00:24:35.818Z,100.00
2023-08-08T00:27:04.104Z,100.00
2023-08-08T00:29:32.616Z,100.00
2023-08-08T00:32:00.956Z,100.00
2023-08-08T00:34:29.357Z,100.00
2023-08-08T00:36:57.381Z,100.00
2023-08-08T00:39:25.384Z,100.00
2023-08-08T00:41:53.504Z,100.00
2023-08-08T00:44:21.464Z,100.00
2023-08-08T00:46:49.844Z,100.00
2023-08-08T00:49:18.024Z,100.00
2023-08-08T00:51:47.834Z,100.00
2023-08-08T00:54:16.057Z,100.00
2023-08-08T00:56:44.092Z,100.00
2023-08-08T00:59:14.997Z,100.00
2023-08-08T01:01:43.865Z,100.00
2023-08-08T01:04:13.233Z,100.00
2023-08-08T01:06:49.188Z,100.00
2023-08-08T01:09:30.009Z,100.00
2023-08-08T01:11:59.018Z,100.00
2023-08-08T01:14:31.697Z,100.00
2023-08-08T01:17:01.225Z,100.00
2023-08-08T01:19:31.760Z,100.00
2023-08-08T01:22:06.706Z,100.00
2023-08-08T01:24:38.421Z,100.00
2023-08-08T01:27:07.650Z,100.00
2023-08-08T01:29:35.835Z,100.00
2023-08-08T01:32:04.221Z,100.00
2023-08-08T01:34:32.389Z,100.00
2023-08-08T01:37:29.821Z,100.00
2023-08-08T01:40:00.629Z,100.00
2023-08-08T01:42:30.139Z,100.00
2023-08-08T01:44:59.053Z,100.00
2023-08-08T01:47:27.145Z,100.00
2023-08-08T01:49:55.165Z,100.00
2023-08-08T01:52:24.161Z,100.00
2023-08-08T01:54:52.102Z,100.00
2023-08-08T01:57:20.127Z,100.00
2023-08-08T01:59:48.213Z,100.00
2023-08-08T02:02:18.496Z,100.00
2023-08-08T02:04:46.508Z,100.00
2023-08-08T02:07:15.254Z,100.00
2023-08-08T02:09:47.312Z,100.00
2023-08-08T02:12:15.417Z,100.00
2023-08-08T02:14:43.422Z,100.00
2023-08-08T02:17:11.526Z,100.00
2023-08-08T02:19:39.627Z,100.00
2023-08-08T02:22:07.605Z,100.00
2023-08-08T02:24:35.684Z,100.00
2023-08-08T02:27:03.969Z,100.00
2023-08-08T02:29:32.016Z,100.00
2023-08-08T02:32:01.570Z,100.00
2023-08-08T02:34:29.965Z,100.00
2023-08-08T02:36:58.162Z,100.00
2023-08-08T02:39:26.130Z,100.00
2023-08-08T02:41:54.121Z,100.00
2023-08-08T02:44:23.811Z,100.00
2023-08-08T02:46:52.927Z,100.00
2023-08-08T02:49:20.939Z,100.00
2023-08-08T02:51:49.719Z,100.00
2023-08-08T02:54:18.426Z,100.00
2023-08-08T02:56:46.514Z,100.00
2023-08-08T02:59:14.748Z,100.00
2023-08-08T03:01:42.985Z,100.00
2023-08-08T03:04:16.695Z,100.00
2023-08-08T03:06:44.685Z,100.00
2023-08-08T03:09:12.847Z,100.00
2023-08-08T03:11:42.819Z,100.00
2023-08-08T03:14:12.238Z,100.00
2023-08-08T03:16:40.779Z,100.00
2023-08-08T03:19:09.552Z,100.00
2023-08-08T03:21:38.645Z,100.00
2023-08-08T03:24:07.010Z,100.00
2023-08-08T03:26:35.166Z,100.00
2023-08-08T03:29:03.177Z,100.00
2023-08-08T03:31:35.523Z,100.00
2023-08-08T03:34:05.675Z,100.00
2023-08-08T03:36:33.944Z,100.00
2023-08-08T03:39:02.141Z,100.00
2023-08-08T03:41:30.775Z,100.00
2023-08-08T03:43:58.731Z,100.00
2023-08-08T03:46:27.006Z,100.00
2023-08-08T03:48:55.715Z,100.00
2023-08-08T03:51:23.804Z,100.00
2023-08-08T03:53:51.787Z,100.00
2023-08-08T03:56:19.801Z,100.00
2023-08-08T03:58:48.104Z,100.00
2023-08-08T04:01:16.106Z,100.00
2023-08-08T04:03:44.092Z,100.00
2023-08-08T04:06:12.081Z,100.00
2023-08-08T04:08:40.746Z,100.00
2023-08-08T04:11:09.791Z,100.00
2023-08-08T04:13:38.274Z,100.00
2023-08-08T04:16:06.276Z,100.00
2023-08-08T04:18:34.373Z,100.00
2023-08-08T04:21:02.374Z,100.00
2023-08-08T04:23:30.286Z,100.00
2023-08-08T04:25:58.500Z,100.00
2023-08-08T04:28:26.441Z,100.00
2023-08-08T04:30:54.418Z,100.00
2023-08-08T04:33:22.369Z,100.00
2023-08-08T04:35:50.303Z,100.00
2023-08-08T04:38:18.972Z,100.00
2023-08-08T04:40:47.051Z,100.00
2023-08-08T04:43:14.979Z,100.00
2023-08-08T04:45:42.969Z,100.00
2023-08-08T04:48:11.325Z,100.00
2023-08-08T04:50:40.337Z,100.00
2023-08-08T04:53:08.330Z,100.00
2023-08-08T04:55:36.236Z,100.00
2023-08-08T04:58:04.454Z,100.00
2023-08-08T05:00:32.452Z,100.00
2023-08-08T05:03:00.782Z,100.00
2023-08-08T05:05:28.874Z,100.00
2023-08-08T05:07:56.777Z,100.00
2023-08-08T05:10:24.938Z,100.00
2023-08-08T05:12:52.919Z,100.00
2023-08-08T05:15:20.831Z,100.00
2023-08-08T05:17:48.793Z,100.00
2023-08-08T05:20:17.482Z,100.00
2023-08-08T05:22:45.438Z,100.00
2023-08-08T05:25:13.579Z,100.00
2023-08-08T05:27:41.894Z,100.00
2023-08-08T05:30:10.096Z,100.00
2023-08-08T05:32:38.341Z,100.00
2023-08-08T05:35:07.181Z,100.00
2023-08-08T05:37:35.219Z,100.00
2023-08-08T05:40:03.632Z,100.00
2023-08-08T05:42:33.090Z,100.00
2023-08-08T05:45:01.199Z,100.00
2023-08-08T05:47:29.187Z,100.00
2023-08-08T05:49:57.264Z,100.00
2023-08-08T05:52:25.359Z,100.00
2023-08-08T05:54:53.526Z,100.00
2023-08-08T05:57:22.721Z,100.00
2023-08-08T05:59:51.437Z,100.00
2023-08-08T06:02:19.357Z,100.00
2023-08-08T06:04:47.292Z,100.00
2023-08-08T06:07:15.368Z,100.00
2023-08-08T06:09:43.541Z,100.00
2023-08-08T06:12:11.775Z,100.00
2023-08-08T06:14:39.819Z,100.00
2023-08-08T06:17:07.789Z,100.00
2023-08-08T06:19:35.712Z,100.00
2023-08-08T06:22:04.704Z,100.00
2023-08-08T06:24:33.187Z,100.00
2023-08-08T06:27:01.154Z,100.00
2023-08-08T06:29:29.115Z,100.00
2023-08-08T06:31:57.408Z,100.00
2023-08-08T06:34:25.465Z,100.00
2023-08-08T06:36:53.547Z,100.00
2023-08-08T06:39:23.026Z,100.00
2023-08-08T06:41:50.987Z,99.97
2023-08-08T06:44:22.774Z,99.75
2023-08-08T06:46:50.754Z,99.12
2023-08-08T06:49:18.716Z,98.06
2023-08-08T06:51:46.685Z,97.42
2023-08-08T06:54:14.599Z,97.66
2023-08-08T06:56:42.661Z,96.50
2023-08-08T06:59:10.601Z,96.76
2023-08-08T07:01:38.625Z,95.77
2023-08-08T07:04:06.759Z,94.88
2023-08-08T07:06:35.006Z,95.18
2023-08-08T07:09:03.587Z,95.02
2023-08-08T07:11:31.597Z,94.81
2023-08-08T07:13:59.573Z,92.17
2023-08-08T07:16:27.567Z,91.54
2023-08-08T07:18:56.813Z,91.31
2023-08-08T07:21:25.080Z,89.66
2023-08-08T07:23:53.246Z,89.43
2023-08-08T07:26:21.287Z,88.90
2023-08-08T07:28:49.225Z,87.45
2023-08-08T07:31:17.239Z,86.81
2023-08-08T07:33:45.235Z,86.79
2023-08-08T07:36:13.174Z,86.45
2023-08-08T07:38:41.365Z,87.54
2023-08-08T07:41:09.342Z,85.22
2023-08-08T07:43:37.331Z,84.10
2023-08-08T07:46:05.364Z,82.23
2023-08-08T07:48:33.353Z,81.74
2023-08-08T07:51:01.248Z,80.54
2023-08-08T07:53:29.217Z,80.50
2023-08-08T07:56:26.104Z,81.57
2023-08-08T07:58:54.176Z,77.40
2023-08-08T08:01:22.182Z,78.74
2023-08-08T08:03:50.274Z,79.38
2023-08-08T08:06:18.401Z,76.28
2023-08-08T08:08:46.376Z,77.66
2023-08-08T08:11:14.391Z,79.50
2023-08-08T08:13:42.434Z,78.36
2023-08-08T08:16:10.686Z,79.74
2023-08-08T08:18:38.794Z,78.39
2023-08-08T08:21:06.800Z,77.33
2023-08-08T08:23:34.839Z,78.03
2023-08-08T08:26:02.811Z,78.67
2023-08-08T08:28:30.717Z,78.04
2023-08-08T08:30:58.775Z,76.57
2023-08-08T08:33:26.744Z,75.45
2023-08-08T08:35:54.710Z,74.14
2023-08-08T08:38:22.640Z,75.35
2023-08-08T08:40:55.168Z,76.29
2023-08-08T08:43:23.649Z,75.75
2023-08-08T08:45:55.209Z,76.16
2023-08-08T08:48:23.751Z,74.43
2023-08-08T08:50:52.184Z,73.55
2023-08-08T08:53:20.330Z,74.30
2023-08-08T08:55:48.917Z,73.33
2023-08-08T08:58:20.015Z,71.46
2023-08-08T09:00:48.994Z,70.53
2023-08-08T09:03:17.381Z,70.46
2023-08-08T09:05:46.388Z,68.61
2023-08-08T09:08:14.697Z,67.23
2023-08-08T09:10:42.624Z,65.56
2023-08-08T09:13:11.349Z,66.78
2023-08-08T09:15:39.302Z,65.31
2023-08-08T09:18:08.917Z,65.98
2023-08-08T09:20:36.976Z,66.31
2023-08-08T09:23:05.225Z,66.43
2023-08-08T09:25:33.196Z,66.80
2023-08-08T09:28:01.263Z,66.12
2023-08-08T09:30:31.586Z,66.78
2023-08-08T09:33:02.927Z,66.69
2023-08-08T09:35:31.708Z,66.70
2023-08-08T09:38:00.262Z,66.49
2023-08-08T09:40:29.117Z,67.92
2023-08-08T09:42:58.031Z,67.41
2023-08-08T09:45:25.950Z,65.51
2023-08-08T09:47:54.205Z,65.35
2023-08-08T09:50:22.450Z,65.89
2023-08-08T09:52:50.984Z,63.98
2023-08-08T09:55:19.951Z,62.51
2023-08-08T09:57:49.877Z,62.71
2023-08-08T10:00:18.145Z,62.61
2023-08-08T10:02:47.092Z,63.68
2023-08-08T10:05:17.360Z,63.74
2023-08-08T10:07:46.390Z,63.26
2023-08-08T10:10:14.746Z,63.71
2023-08-08T10:12:43.387Z,64.24
2023-08-08T10:15:12.486Z,64.06
2023-08-08T10:17:42.756Z,64.09
2023-08-08T10:20:12.975Z,64.57
2023-08-08T10:22:48.101Z,64.02
2023-08-08T10:25:34.234Z,63.61
2023-08-08T10:30:48.517Z,64.24
2023-08-08T10:33:21.233Z,63.97
2023-08-08T10:35:57.818Z,63.42
2023-08-08T10:38:27.019Z,63.33
2023-08-08T10:40:59.566Z,62.85
2023-08-08T10:43:29.720Z,63.86
2023-08-08T10:46:14.128Z,63.67
2023-08-08T10:48:57.758Z,63.10
2023-08-08T10:51:44.248Z,62.24
2023-08-08T10:54:28.815Z,61.34
2023-08-08T10:56:59.558Z,61.53
2023-08-08T10:59:38.875Z,61.54
2023-08-08T11:02:07.790Z,61.38
2023-08-08T11:04:37.174Z,60.73
2023-08-08T11:07:05.448Z,61.12
2023-08-08T11:09:33.629Z,60.98
2023-08-08T11:12:01.965Z,61.21
2023-08-08T11:14:31.033Z,60.25
2023-08-08T11:16:59.155Z,59.77
2023-08-08T11:19:27.139Z,59.48
2023-08-08T11:21:55.206Z,58.86
2023-08-08T11:24:23.217Z,58.42
2023-08-08T11:26:52.672Z,57.96
2023-08-08T11:29:20.752Z,58.21
2023-08-08T11:31:49.655Z,58.31
2023-08-08T11:34:19.012Z,58.25
2023-08-08T11:36:47.516Z,58.99
2023-08-08T11:39:15.681Z,59.14
2023-08-08T11:41:43.855Z,58.23
2023-08-08T11:44:12.737Z,58.06
2023-08-08T11:46:47.852Z,58.61
2023-08-08T11:49:18.216Z,58.43
2023-08-08T11:51:47.200Z,58.44
2023-08-08T11:54:15.930Z,58.45
2023-08-08T11:56:45.096Z,58.16
2023-08-08T11:59:13.795Z,58.23
2023-08-08T12:01:42.833Z,58.43
2023-08-08T12:04:11.459Z,56.78
2023-08-08T12:06:40.664Z,55.87
2023-08-08T12:09:08.749Z,56.37
2023-08-08T12:11:38.368Z,54.99
2023-08-08T12:14:14.998Z,56.38
2023-08-08T12:16:45.053Z,56.81
2023-08-08T12:19:15.696Z,56.38
2023-08-08T12:21:43.689Z,56.50
2023-08-08T12:24:11.632Z,57.31
2023-08-08T12:26:39.661Z,57.98
2023-08-08T12:29:07.706Z,58.29
2023-08-08T12:31:36.152Z,58.24
2023-08-08T12:34:04.433Z,58.00
2023-08-08T12:36:32.914Z,57.68
2023-08-08T12:39:01.040Z,56.33
2023-08-08T12:41:30.817Z,55.66
2023-08-08T12:43:58.841Z,55.05
2023-08-08T12:46:27.149Z,53.89
2023-08-08T12:48:55.403Z,53.21
2023-08-08T12:51:23.499Z,53.50
2023-08-08T12:53:51.965Z,54.15
2023-08-08T12:56:20.064Z,54.41
2023-08-08T12:58:48.121Z,55.15
2023-08-08T13:01:16.091Z,55.27
2023-08-08T13:03:48.341Z,54.70
2023-08-08T13:06:24.157Z,54.60
2023-08-08T13:08:52.069Z,55.15
2023-08-08T13:11:20.006Z,55.27
2023-08-08T13:13:48.010Z,56.06
2023-08-08T13:16:16.532Z,55.89
2023-08-08T13:18:44.599Z,54.40
2023-08-08T13:21:13.765Z,54.93
2023-08-08T13:23:43.386Z,54.23
2023-08-08T13:26:11.587Z,54.05
2023-08-08T13:28:40.184Z,53.97
2023-08-08T13:31:09.388Z,54.74
2023-08-08T13:33:37.575Z,53.07
2023-08-08T13:36:05.839Z,52.95
2023-08-08T13:38:34.137Z,53.53
2023-08-08T13:41:02.320Z,53.97
2023-08-08T13:43:32.768Z,53.64
2023-08-08T13:46:01.733Z,53.89
2023-08-08T13:48:29.876Z,53.93
2023-08-08T13:50:57.907Z,53.47
2023-08-08T13:53:25.858Z,53.15
2023-08-08T13:55:53.765Z,52.77
2023-08-08T13:58:24.807Z,51.30
2023-08-08T14:00:53.448Z,50.30
2023-08-08T14:03:21.512Z,49.56
2023-08-08T14:05:49.520Z,49.38
2023-08-08T14:08:17.526Z,48.96
2023-08-08T14:10:46.551Z,48.82
2023-08-08T14:13:14.543Z,49.21
2023-08-08T14:15:42.593Z,48.50
2023-08-08T14:18:11.644Z,49.06
2023-08-08T14:20:39.646Z,48.18
2023-08-08T14:23:07.669Z,48.37
2023-08-08T14:25:35.653Z,47.59
2023-08-08T14:28:05.278Z,46.76
2023-08-08T14:30:33.243Z,47.49
2023-08-08T14:33:01.351Z,46.87
2023-08-08T14:35:29.376Z,47.75
2023-08-08T14:37:57.385Z,46.90
2023-08-08T14:40:25.727Z,47.30
2023-08-08T14:42:56.218Z,48.11
2023-08-08T14:45:25.368Z,49.20
2023-08-08T14:47:53.729Z,49.57
2023-08-08T14:50:21.721Z,49.57
2023-08-08T14:52:49.645Z,49.23
2023-08-08T14:55:17.609Z,49.61
2023-08-08T14:57:45.649Z,49.68
2023-08-08T15:00:13.981Z,50.26
2023-08-08T15:02:42.044Z,50.68
2023-08-08T15:05:10.221Z,50.54
2023-08-08T15:07:38.289Z,50.81
2023-08-08T15:10:06.642Z,50.96
2023-08-08T15:12:34.609Z,51.67
2023-08-08T15:15:04.939Z,52.19
2023-08-08T15:17:34.123Z,52.45
2023-08-08T15:20:02.757Z,53.13
2023-08-08T15:22:30.741Z,53.38
2023-08-08T15:24:58.737Z,53.92
2023-08-08T15:27:26.815Z,54.32
2023-08-08T15:29:54.761Z,54.88
2023-08-08T15:32:23.328Z,54.95
2023-08-08T15:34:51.287Z,55.29
2023-08-08T15:37:19.254Z,55.38
2023-08-08T15:39:47.219Z,55.31
2023-08-08T15:42:15.216Z,55.47
2023-08-08T15:44:43.302Z,55.30
2023-08-08T15:47:11.388Z,55.52
2023-08-08T15:49:39.340Z,56.05
2023-08-08T15:52:07.403Z,55.84
2023-08-08T15:54:35.478Z,55.75
2023-08-08T15:57:03.973Z,55.42
2023-08-08T15:59:32.570Z,55.17
2023-08-08T16:02:00.580Z,54.19
2023-08-08T16:04:28.678Z,54.06
2023-08-08T16:06:56.606Z,53.24
2023-08-08T16:09:24.570Z,52.69
2023-08-08T16:11:52.605Z,52.83
2023-08-08T16:14:21.225Z,52.60
2023-08-08T16:16:49.296Z,52.92
2023-08-08T16:19:17.867Z,53.21
2023-08-08T16:21:45.814Z,53.75
2023-08-08T16:24:13.852Z,53.78
2023-08-08T16:26:41.772Z,54.17
2023-08-08T16:29:10.514Z,54.40
2023-08-08T16:31:41.829Z,53.95
2023-08-08T16:34:09.881Z,53.87
2023-08-08T16:36:40.129Z,53.86
2023-08-08T16:39:18.099Z,54.16
2023-08-08T16:41:47.422Z,54.57
2023-08-08T16:44:15.982Z,54.91
2023-08-08T16:46:44.028Z,55.48
2023-08-08T16:49:12.136Z,55.86
2023-08-08T16:51:41.032Z,56.29
2023-08-08T16:54:09.014Z,55.82
2023-08-08T16:56:37.409Z,55.68
2023-08-08T16:59:05.843Z,56.13
2023-08-08T17:01:33.877Z,55.89
2023-08-08T17:04:01.842Z,55.90
2023-08-08T17:06:29.893Z,56.22
2023-08-08T17:08:58.094Z,55.89
2023-08-08T17:11:28.857Z,55.97
2023-08-08T17:13:58.273Z,55.62
2023-08-08T17:16:26.497Z,55.09
2023-08-08T17:18:54.520Z,55.04
2023-08-08T17:21:22.519Z,54.39
2023-08-08T17:23:50.541Z,54.93
2023-08-08T17:26:18.660Z,55.09
2023-08-08T17:28:48.483Z,54.91
2023-08-08T17:31:20.537Z,55.24
2023-08-08T17:33:51.440Z,55.64
2023-08-08T17:36:54.914Z,55.75
2023-08-08T17:39:28.114Z,55.93
2023-08-08T17:41:58.613Z,56.11
2023-08-08T17:44:27.238Z,56.35
2023-08-08T17:46:57.025Z,56.93
2023-08-08T17:49:28.299Z,57.04
2023-08-08T17:51:56.314Z,57.33
2023-08-08T17:54:24.265Z,57.53
2023-08-08T17:56:52.315Z,57.70
2023-08-08T17:59:20.366Z,58.13
2023-08-08T18:01:48.624Z,58.56
2023-08-08T18:04:16.691Z,58.92
2023-08-08T18:06:44.703Z,59.61
2023-08-08T18:09:12.777Z,60.01
2023-08-08T18:11:40.848Z,60.39
2023-08-08T18:14:10.499Z,60.55
2023-08-08T18:16:38.904Z,60.88
2023-08-08T18:19:07.211Z,61.35
2023-08-08T18:21:35.937Z,61.59
2023-08-08T18:24:04.822Z,62.03
2023-08-08T18:26:32.918Z,62.55
2023-08-08T18:29:01.092Z,62.71
2023-08-08T18:31:29.204Z,63.17
2023-08-08T18:34:01.950Z,63.81
2023-08-08T18:36:30.995Z,64.27
2023-08-08T18:38:59.160Z,64.24
2023-08-08T18:41:27.999Z,64.41
2023-08-08T18:43:56.275Z,64.80
2023-08-08T18:46:24.537Z,64.81
2023-08-08T18:48:52.676Z,65.12
2023-08-08T18:51:20.665Z,65.63
2023-08-08T18:53:48.955Z,65.98
2023-08-08T18:56:16.919Z,65.86
2023-08-08T18:58:45.053Z,66.48
2023-08-08T19:01:13.435Z,66.05
2023-08-08T19:03:42.478Z,66.05
2023-08-08T19:06:10.567Z,66.27
2023-08-08T19:08:38.567Z,67.08
2023-08-08T19:11:06.599Z,68.40
2023-08-08T19:13:34.751Z,68.49
2023-08-08T19:16:02.960Z,69.74
2023-08-08T19:18:31.156Z,69.69
2023-08-08T19:20:59.198Z,69.98
2023-08-08T19:23:27.252Z,70.41
2023-08-08T19:26:00.738Z,70.76
2023-08-08T19:28:29.071Z,71.37
2023-08-08T19:30:57.203Z,72.24
2023-08-08T19:33:25.679Z,72.14
2023-08-08T19:35:57.777Z,72.45
2023-08-08T19:38:26.153Z,72.34
2023-08-08T19:40:55.132Z,73.14
2023-08-08T19:43:23.091Z,72.97
2023-08-08T19:45:52.912Z,73.94
2023-08-08T19:48:21.808Z,75.46
2023-08-08T19:50:49.809Z,76.25
2023-08-08T19:53:18.322Z,76.86
2023-08-08T19:55:46.340Z,77.24
2023-08-08T19:58:14.405Z,76.46
2023-08-08T20:00:42.834Z,76.65
2023-08-08T20:03:10.915Z,76.54
2023-08-08T20:05:39.274Z,77.26
2023-08-08T20:08:07.430Z,78.03
2023-08-08T20:10:36.178Z,77.74
2023-08-08T20:13:04.877Z,77.91
2023-08-08T20:15:33.156Z,78.47
2023-08-08T20:18:01.309Z,79.34
2023-08-08T20:20:29.364Z,78.90
2023-08-08T20:22:57.486Z,78.99
2023-08-08T20:25:25.491Z,79.32
2023-08-08T20:27:53.446Z,79.27
2023-08-08T20:30:21.591Z,79.31
2023-08-08T20:32:49.737Z,79.23
2023-08-08T20:35:17.825Z,79.38
2023-08-08T20:37:46.033Z,79.37
2023-08-08T20:40:13.985Z,79.83
2023-08-08T20:42:42.897Z,79.93
2023-08-08T20:45:11.167Z,81.06
2023-08-08T20:47:39.792Z,81.79
2023-08-08T20:50:08.856Z,81.21
2023-08-08T20:52:39.430Z,81.26
2023-08-08T20:55:08.064Z,81.62
2023-08-08T20:57:36.422Z,83.30
2023-08-08T21:00:04.886Z,83.16
2023-08-08T21:02:32.937Z,83.41
2023-08-08T21:05:00.950Z,84.73
2023-08-08T21:07:28.916Z,84.54
2023-08-08T21:09:56.869Z,84.37
2023-08-08T21:12:24.899Z,85.50
2023-08-08T21:14:53.205Z,85.96
2023-08-08T21:17:21.859Z,86.57
2023-08-08T21:19:53.712Z,86.31
2023-08-08T21:22:21.758Z,87.56
2023-08-08T21:24:49.742Z,87.28
2023-08-08T21:27:18.711Z,86.81
2023-08-08T21:29:46.713Z,86.56
2023-08-08T21:32:14.618Z,86.81
2023-08-08T21:34:42.564Z,87.50
2023-08-08T21:37:10.892Z,88.43
2023-08-08T21:39:39.775Z,88.10
2023-08-08T21:42:07.781Z,87.53
2023-08-08T21:44:35.777Z,87.82
2023-08-08T21:47:04.043Z,87.38
2023-08-08T21:49:32.305Z,87.79
2023-08-08T21:52:01.703Z,90.34
2023-08-08T21:54:30.109Z,91.33
2023-08-08T21:56:58.037Z,90.86
2023-08-08T21:59:26.024Z,89.83
2023-08-08T22:01:54.006Z,89.37
2023-08-08T22:04:22.204Z,89.63
2023-08-08T22:06:50.231Z,89.34
2023-08-08T22:09:18.171Z,89.21
2023-08-08T22:11:46.096Z,89.86
2023-08-08T22:14:14.697Z,90.03
2023-08-08T22:16:42.740Z,91.48
2023-08-08T22:19:11.246Z,92.81
2023-08-08T22:21:39.260Z,93.34
2023-08-08T22:24:07.436Z,92.51
2023-08-08T22:26:35.599Z,93.66
2023-08-08T22:29:03.922Z,93.92
2023-08-08T22:31:32.276Z,93.31
2023-08-08T22:34:01.410Z,94.23
2023-08-08T22:36:29.456Z,93.91
2023-08-08T22:38:57.368Z,95.43
2023-08-08T22:41:25.498Z,94.80
2023-08-08T22:43:53.432Z,95.59
2023-08-08T22:46:24.743Z,96.08
2023-08-08T22:48:52.805Z,96.80
2023-08-08T22:51:21.067Z,95.62
2023-08-08T22:53:49.137Z,94.69
2023-08-08T22:56:17.263Z,94.25
2023-08-08T22:58:45.504Z,93.96
2023-08-08T23:01:13.459Z,93.82
2023-08-08T23:03:41.701Z,93.63
2023-08-08T23:06:09.715Z,93.73
2023-08-08T23:08:37.710Z,93.65
2023-08-08T23:11:05.691Z,93.57
2023-08-08T23:13:33.598Z,93.51
2023-08-08T23:16:01.635Z,93.52
2023-08-08T23:18:29.592Z,93.61
2023-08-08T23:20:57.564Z,93.50
2023-08-08T23:23:25.628Z,93.98
2023-08-08T23:25:54.665Z,94.43
2023-08-08T23:28:24.136Z,94.68
2023-08-08T23:30:52.291Z,94.33
2023-08-08T23:33:20.384Z,94.47
2023-08-08T23:35:52.714Z,94.53
2023-08-08T23:38:20.650Z,94.62
2023-08-08T23:40:48.699Z,94.55
2023-08-08T23:43:16.729Z,94.42
2023-08-08T23:45:44.693Z,94.64
2023-08-08T23:48:13.533Z,94.82
2023-08-08T23:50:41.546Z,95.05
2023-08-08T23:53:09.566Z,95.32
2023-08-08T23:55:37.520Z,95.41
2023-08-08T23:58:05.590Z,95.67
